Time;durP1;ratioP1;P1;durP2;ratioP2;P2;SDS_P1;SDS_P2;PMS_P1;PMS_P2;Temp;Humidity;BMP_temperature;BMP_pressure;BME280_temperature;BME280_humidity;BME280_pressure;Samples;Min_cycle;Max_cycle;Signal;HPM_P1;HPM_P2
2022/01/27 00:05:34;;;;;;;5.60;4.53;;;;;;;-5.30;78.44;100628.38;5011528;28;20045;-64
2022/01/27 00:13:11;;;;;;;20.35;9.15;;;;;;;-5.20;77.26;100594.25;5093359;28;20467;-64
2022/01/27 00:15:39;;;;;;;14.02;9.88;;;;;;;-5.16;78.19;100622.59;5075798;28;20117;-61
2022/01/27 00:18:12;;;;;;;9.88;5.25;;;;;;;-5.34;78.69;100580.09;5093835;28;20036;-63
2022/01/27 00:20:38;;;;;;;10.05;6.80;;;;;;;-5.31;78.68;100585.16;5093451;28;20131;-62
2022/01/27 00:23:04;;;;;;;12.00;6.68;;;;;;;-5.32;79.01;100583.47;5093151;28;20043;-62
2022/01/27 00:25:30;;;;;;;7.00;6.20;;;;;;;-5.40;78.96;100563.97;5094384;28;20387;-62
2022/01/27 00:27:55;;;;;;;10.23;6.33;;;;;;;-5.27;78.34;100577.22;5092880;28;20067;-63
2022/01/27 00:30:21;;;;;;;12.33;6.13;;;;;;;-5.43;79.33;100522.56;5093507;28;20126;-62
2022/01/27 00:32:46;;;;;;;9.93;5.97;;;;;;;-5.07;77.61;100585.00;5094079;28;20028;-63
2022/01/27 00:35:12;;;;;;;8.83;5.17;;;;;;;-5.12;77.76;100579.16;5093578;28;20028;-64
2022/01/27 00:37:38;;;;;;;5.90;5.33;;;;;;;-5.21;78.01;100559.63;5094024;28;20402;-62
2022/01/27 00:40:05;;;;;;;9.33;4.93;;;;;;;-5.10;78.04;100573.00;5093051;28;20028;-62
2022/01/27 00:42:31;;;;;;;7.85;6.07;;;;;;;-5.11;77.65;100549.69;5092430;28;20324;-62
2022/01/27 00:44:58;;;;;;;11.77;5.38;;;;;;;-5.31;77.12;100509.88;5092702;28;20127;-61
2022/01/27 00:47:24;;;;;;;5.60;4.88;;;;;;;-5.09;77.20;100547.88;5092583;28;20051;-62
2022/01/27 00:49:50;;;;;;;7.63;5.53;;;;;;;-5.11;77.51;100547.09;5092628;28;20036;-62
2022/01/27 00:52:24;;;;;;;7.65;5.43;;;;;;;-5.28;77.01;100526.22;5092599;28;20040;-61
2022/01/27 00:54:52;;;;;;;7.97;5.15;;;;;;;-5.41;77.12;100500.84;5093075;28;20536;-61
2022/01/27 01:00:01;;;;;;;7.28;4.95;;;;;;;-5.01;76.57;100543.16;5093511;28;20043;-62
2022/01/27 01:07:55;;;;;;;6.28;4.65;;;;;;;-5.09;76.78;100517.56;5093885;28;20044;-64
2022/01/27 01:15:33;;;;;;;7.13;5.07;;;;;;;-4.99;77.18;100530.94;5093528;28;20040;-63
2022/01/27 01:18:17;;;;;;;6.97;4.40;;;;;;;-5.04;77.79;100530.31;5075238;28;20091;-62
2022/01/27 01:31:45;;;;;;;6.00;4.95;;;;;;;-5.05;77.19;100502.69;5092881;28;20544;-61
2022/01/27 01:34:27;;;;;;;5.28;4.25;;;;;;;-5.07;77.59;100488.91;5092488;28;20082;-62
2022/01/27 01:39:24;;;;;;;5.43;4.00;;;;;;;-5.01;76.80;100491.22;5093137;28;20043;-64
2022/01/27 01:41:50;;;;;;;4.30;3.90;;;;;;;-5.15;76.82;100473.69;5096164;28;20126;-64
2022/01/27 01:44:15;;;;;;;6.37;4.50;;;;;;;-5.35;77.22;100446.03;5096525;28;20071;-62
2022/01/27 01:46:41;;;;;;;4.53;3.77;;;;;;;-4.99;76.60;100490.25;5095985;28;20083;-60
2022/01/27 01:49:06;;;;;;;5.80;5.20;;;;;;;-5.07;77.13;100470.75;5095963;28;20032;-64
2022/01/27 01:51:35;;;;;;;7.23;3.87;;;;;;;-4.85;76.21;100494.81;5096203;28;20036;-61
2022/01/27 01:54:01;;;;;;;3.85;3.15;;;;;;;-4.84;75.76;100475.72;5095860;28;20035;-61
2022/01/27 01:56:26;;;;;;;4.70;3.97;;;;;;;-5.62;75.82;100362.50;5095805;28;20046;-62
2022/01/27 01:58:52;;;;;;;5.10;3.60;;;;;;;-4.94;76.14;100476.19;5101518;28;20032;-62
2022/01/27 02:01:18;;;;;;;5.97;4.10;;;;;;;-5.10;76.78;100457.91;5105534;28;20414;-61
2022/01/27 02:03:47;;;;;;;8.13;3.60;;;;;;;-4.94;76.25;100474.44;5105832;28;20965;-63
2022/01/27 02:06:27;;;;;;;4.72;4.00;;;;;;;-4.92;76.15;100467.41;5107070;28;20282;-62
2022/01/27 02:19:43;;;;;;;4.20;3.55;;;;;;;-5.15;75.94;100444.31;5095363;28;20036;-62
2022/01/27 02:22:08;;;;;;;5.77;3.97;;;;;;;-5.16;76.69;100442.63;5095480;28;20032;-62
2022/01/27 02:24:35;;;;;;;7.47;3.53;;;;;;;-5.09;76.83;100455.25;5083252;28;20506;-62
2022/01/27 02:27:03;;;;;;;5.05;3.70;;;;;;;-5.16;77.02;100437.44;5102632;28;20490;-61
2022/01/27 02:29:29;;;;;;;4.22;3.80;;;;;;;-5.46;76.32;100370.44;5102475;28;20040;-62
2022/01/27 02:31:58;;;;;;;8.40;3.40;;;;;;;-5.05;75.66;100417.81;5082815;28;20475;-62
2022/01/27 02:34:24;;;;;;;4.65;3.78;;;;;;;-5.02;76.29;100433.25;5100918;28;20046;-61
2022/01/27 02:36:50;;;;;;;4.77;3.50;;;;;;;-5.09;75.87;100418.03;5101364;28;20473;-61
2022/01/27 02:39:17;;;;;;;3.75;3.03;;;;;;;-4.97;76.30;100427.00;5101135;28;20090;-62
2022/01/27 02:41:59;;;;;;;6.30;3.67;;;;;;;-4.93;76.03;100423.34;5099810;28;20066;-61
2022/01/27 02:44:29;;;;;;;4.25;3.00;;;;;;;-5.14;76.50;100405.28;5102723;28;20040;-62
2022/01/27 02:46:55;;;;;;;5.72;3.47;;;;;;;-5.05;76.44;100411.78;5098886;28;20042;-62
2022/01/27 02:49:20;;;;;;;4.47;3.00;;;;;;;-5.01;75.71;100423.72;5099592;28;20028;-62
2022/01/27 02:51:46;;;;;;;4.50;3.37;;;;;;;-5.16;76.60;100406.28;5097361;28;20074;-61
2022/01/27 02:54:11;;;;;;;5.10;3.80;;;;;;;-5.25;76.79;100391.09;5097722;28;20035;-62
2022/01/27 02:56:44;;;;;;;4.10;3.60;;;;;;;-5.58;76.21;100346.81;5098639;28;20115;-62
2022/01/27 02:59:10;;;;;;;6.32;3.42;;;;;;;-5.25;76.85;100398.91;5099904;28;20040;-61
2022/01/27 03:01:36;;;;;;;5.57;3.83;;;;;;;-5.33;78.18;100394.06;5098616;28;20035;-61
2022/01/27 03:04:03;;;;;;;7.17;4.90;;;;;;;-5.20;77.50;100389.16;5099007;28;20051;-61
2022/01/27 03:06:29;;;;;;;6.60;4.05;;;;;;;-5.09;77.46;100392.09;5077250;28;20044;-62
2022/01/27 03:08:54;;;;;;;6.80;4.20;;;;;;;-5.06;77.57;100390.19;5094471;28;20032;-61
2022/01/27 03:11:39;;;;;;;7.60;4.07;;;;;;;-5.04;77.47;100375.38;5094698;28;20043;-61
2022/01/27 03:14:06;;;;;;;7.75;4.30;;;;;;;-4.89;77.60;100394.56;5093879;28;20032;-61
2022/01/27 03:16:31;;;;;;;6.47;3.67;;;;;;;-4.91;77.12;100385.19;5093450;28;20055;-61
2022/01/27 03:18:57;;;;;;;6.13;4.20;;;;;;;-5.32;76.74;100334.28;5093889;28;20399;-62
2022/01/27 03:21:22;;;;;;;7.87;3.77;;;;;;;-5.03;77.94;100384.84;5093821;28;20189;-62
2022/01/27 03:23:48;;;;;;;4.93;3.63;;;;;;;-5.38;77.66;100333.75;5093606;28;20035;-61
2022/01/27 03:26:14;;;;;;;7.53;3.63;;;;;;;-5.58;77.60;100289.72;5093464;28;20449;-61
2022/01/27 03:28:39;;;;;;;5.40;3.80;;;;;;;-5.15;77.48;100345.66;5093271;28;20047;-61
2022/01/27 03:31:05;;;;;;;7.60;3.90;;;;;;;-5.03;77.51;100365.81;5093240;28;20118;-61
2022/01/27 03:33:30;;;;;;;8.27;4.67;;;;;;;-5.12;77.87;100361.06;5092809;28;20034;-64
2022/01/27 03:35:56;;;;;;;8.10;5.43;;;;;;;-5.49;77.63;100297.94;5058819;28;20154;-60
2022/01/27 03:38:22;;;;;;;8.33;4.63;;;;;;;-5.30;77.81;100324.69;5093096;28;20032;-61
2022/01/27 03:40:47;;;;;;;5.13;4.20;;;;;;;-5.30;78.55;100334.22;5093476;28;20181;-62
2022/01/27 03:43:13;;;;;;;12.60;5.73;;;;;;;-5.23;78.25;100350.34;5093430;28;20028;-62
2022/01/27 03:45:39;;;;;;;4.37;3.97;;;;;;;-5.23;78.47;100342.56;5093501;28;20032;-62
2022/01/27 03:48:05;;;;;;;4.72;4.03;;;;;;;-5.32;78.94;100330.84;5093217;28;20036;-62
2022/01/27 03:50:32;;;;;;;5.28;3.95;;;;;;;-5.37;78.89;100320.69;5093562;28;20483;-60
2022/01/27 03:52:57;;;;;;;6.28;4.07;;;;;;;-5.40;78.83;100310.47;5093524;28;20035;-62
2022/01/27 03:55:23;;;;;;;7.40;6.10;;;;;;;-5.41;79.32;100303.59;5093456;28;20039;-62
2022/01/27 03:57:48;;;;;;;4.77;3.90;;;;;;;-5.54;78.54;100270.50;5093005;28;20032;-61
2022/01/27 04:00:15;;;;;;;5.57;4.17;;;;;;;-5.28;78.97;100303.84;5092607;28;20414;-60
2022/01/27 04:02:52;;;;;;;5.90;3.92;;;;;;;-5.17;78.85;100303.34;5092524;28;20103;-60
2022/01/27 04:05:19;;;;;;;4.95;3.35;;;;;;;-5.18;78.59;100288.69;5093322;28;20044;-62
2022/01/27 04:07:45;;;;;;;6.20;4.07;;;;;;;-5.02;77.75;100298.22;5092579;28;20566;-60
2022/01/27 04:10:11;;;;;;;6.50;4.37;;;;;;;-5.19;77.64;100287.00;5092642;28;20131;-62
2022/01/27 04:12:39;;;;;;;5.67;4.07;;;;;;;-5.06;78.24;100312.28;5092601;28;20035;-63
2022/01/27 04:15:05;;;;;;;3.97;3.42;;;;;;;-5.29;77.99;100281.41;5092527;28;20046;-60
2022/01/27 04:17:30;;;;;;;6.28;4.13;;;;;;;-5.29;78.85;100281.41;5092478;28;20437;-61
2022/01/27 04:19:56;;;;;;;6.80;4.27;;;;;;;-5.31;78.61;100283.22;5092391;28;20039;-61
2022/01/27 04:22:21;;;;;;;6.13;4.53;;;;;;;-5.37;78.58;100278.34;5092535;28;20114;-61
2022/01/27 04:24:47;;;;;;;6.10;3.83;;;;;;;-5.34;78.56;100289.41;5092443;28;20028;-62
2022/01/27 04:27:18;;;;;;;9.03;3.97;;;;;;;-5.34;78.59;100281.63;5091959;28;20119;-61
2022/01/27 04:29:44;;;;;;;5.90;4.65;;;;;;;-5.39;78.40;100265.44;5092173;28;20032;-62
2022/01/27 04:32:12;;;;;;;7.73;4.37;;;;;;;-5.37;78.14;100268.78;5092479;28;20036;-62
2022/01/27 04:34:40;;;;;;;5.53;4.75;;;;;;;-5.38;77.77;100267.13;5074170;28;20266;-64
2022/01/27 04:37:07;;;;;;;7.45;4.75;;;;;;;-5.45;77.65;100260.53;5092319;28;20036;-62
2022/01/27 04:39:40;;;;;;;6.47;4.85;;;;;;;-5.48;78.43;100255.50;5095411;28;20036;-62
2022/01/27 04:42:14;;;;;;;5.97;3.63;;;;;;;-5.43;78.58;100258.72;5096305;28;20065;-61
2022/01/27 04:44:49;;;;;;;6.18;4.40;;;;;;;-5.35;78.02;100274.75;5095339;28;20071;-62
2022/01/27 04:47:28;;;;;;;6.93;4.93;;;;;;;-5.39;78.24;100262.84;5095523;28;20044;-61
2022/01/27 04:49:53;;;;;;;6.03;4.03;;;;;;;-5.41;78.71;100249.09;5097479;28;20067;-61
2022/01/27 04:52:19;;;;;;;4.63;3.40;;;;;;;-5.31;78.08;100258.09;5096059;28;20099;-61
2022/01/27 04:54:58;;;;;;;8.50;4.07;;;;;;;-5.24;79.00;100268.19;5095434;28;20062;-61
2022/01/27 04:57:26;;;;;;;7.95;4.97;;;;;;;-5.22;77.84;100251.63;5095384;28;20044;-62
2022/01/27 04:59:52;;;;;;;5.03;3.80;;;;;;;-5.18;77.65;100262.72;5076872;28;20043;-61
2022/01/27 05:02:31;;;;;;;10.03;4.77;;;;;;;-5.15;78.21;100262.56;5092768;28;20039;-61
2022/01/27 05:04:58;;;;;;;4.97;3.80;;;;;;;-5.15;78.12;100253.03;5091591;28;20056;-62
2022/01/27 05:07:23;;;;;;;4.78;4.13;;;;;;;-5.22;77.18;100230.84;5091640;28;20438;-60
2022/01/27 05:09:58;;;;;;;5.37;4.23;;;;;;;-5.07;77.99;100250.03;5091283;28;20028;-62
2022/01/27 05:12:34;;;;;;;6.55;4.60;;;;;;;-5.05;77.79;100248.19;5074556;28;20036;-62
2022/01/27 05:15:00;;;;;;;7.35;4.28;;;;;;;-5.02;77.54;100235.91;5093866;28;20044;-62
2022/01/27 05:17:26;;;;;;;8.23;4.72;;;;;;;-5.06;77.58;100236.97;5095905;28;20057;-62
2022/01/27 05:19:51;;;;;;;6.17;3.70;;;;;;;-5.08;77.73;100233.63;5078136;28;20621;-62
2022/01/27 05:22:17;;;;;;;6.10;4.37;;;;;;;-5.20;77.67;100215.22;5096536;28;20345;-61
2022/01/27 05:24:43;;;;;;;8.23;4.90;;;;;;;-5.03;77.81;100226.44;5096556;28;20043;-63
2022/01/27 05:27:09;;;;;;;7.77;4.33;;;;;;;-5.12;77.47;100215.69;5096240;28;20269;-62
2022/01/27 05:29:34;;;;;;;8.75;5.40;;;;;;;-4.98;77.57;100234.00;5095786;28;20076;-63
2022/01/27 05:32:00;;;;;;;8.50;4.63;;;;;;;-5.05;77.65;100212.69;5095830;28;20067;-64
2022/01/27 05:34:25;;;;;;;7.60;5.30;;;;;;;-4.97;77.41;100221.84;5095968;28;20050;-65
2022/01/27 05:36:51;;;;;;;4.73;4.00;;;;;;;-5.06;78.24;100199.78;5096946;28;20062;-63
2022/01/27 05:39:17;;;;;;;10.97;5.03;;;;;;;-5.03;78.26;100202.22;5096543;28;20036;-64
2022/01/27 05:41:42;;;;;;;6.90;4.13;;;;;;;-5.05;78.15;100194.50;5095547;28;20036;-61
2022/01/27 05:44:09;;;;;;;6.50;3.80;;;;;;;-5.00;78.42;100200.31;5095379;28;20118;-63
2022/01/27 05:46:34;;;;;;;5.68;4.45;;;;;;;-4.99;78.40;100198.56;5095240;28;20036;-62
2022/01/27 05:49:00;;;;;;;7.60;3.90;;;;;;;-4.93;78.05;100195.63;5095809;28;20028;-61
2022/01/27 05:51:26;;;;;;;8.07;5.50;;;;;;;-4.81;77.73;100213.22;5096177;28;20040;-62
2022/01/27 05:53:51;;;;;;;5.67;4.30;;;;;;;-4.90;77.01;100179.09;5078327;28;20032;-61
2022/01/27 05:56:17;;;;;;;6.33;4.97;;;;;;;-4.79;77.37;100208.78;5079363;28;20039;-64
2022/01/27 05:58:42;;;;;;;8.97;4.63;;;;;;;-4.95;77.44;100194.03;5097321;28;20491;-66
2022/01/27 06:01:08;;;;;;;7.57;4.90;;;;;;;-4.91;77.68;100187.78;5096605;28;20035;-66
2022/01/27 06:03:35;;;;;;;9.87;4.33;;;;;;;-4.93;77.87;100190.44;5061177;28;20059;-66
2022/01/27 06:06:01;;;;;;;5.80;4.47;;;;;;;-5.16;78.17;100149.25;5096169;28;20048;-64
2022/01/27 06:08:29;;;;;;;8.50;5.27;;;;;;;-5.05;77.66;100163.34;5096191;28;20043;-64
2022/01/27 06:10:55;;;;;;;9.50;5.47;;;;;;;-4.77;78.56;100201.72;5095636;28;20033;-65
2022/01/27 06:13:20;;;;;;;11.40;5.83;;;;;;;-4.77;77.15;100191.34;5095444;28;20491;-63
2022/01/27 06:15:46;;;;;;;10.57;5.13;;;;;;;-4.74;77.24;100180.78;5096300;28;20031;-64
2022/01/27 06:18:12;;;;;;;7.77;4.70;;;;;;;-4.62;77.69;100186.28;5098593;28;20164;-61
2022/01/27 06:20:39;;;;;;;8.00;5.30;;;;;;;-4.75;76.78;100171.31;5097288;28;20042;-61
2022/01/27 06:23:04;;;;;;;6.90;5.10;;;;;;;-5.19;77.65;100100.09;5097399;28;20043;-62
2022/01/27 06:25:30;;;;;;;7.40;5.00;;;;;;;-4.75;77.73;100158.34;5099735;28;20040;-61
2022/01/27 06:27:57;;;;;;;7.67;4.30;;;;;;;-4.82;77.82;100156.97;5100053;28;20059;-62
2022/01/27 06:30:24;;;;;;;6.75;4.60;;;;;;;-4.80;77.76;100149.94;5100049;28;20044;-63
2022/01/27 06:32:50;;;;;;;10.77;5.10;;;;;;;-4.96;77.13;100123.09;5099507;28;20039;-61
2022/01/27 06:35:16;;;;;;;8.00;5.25;;;;;;;-4.75;77.73;100158.34;5095938;28;20032;-63
2022/01/27 06:37:44;;;;;;;10.47;5.20;;;;;;;-4.86;77.37;100150.28;5096573;28;20044;-66
2022/01/27 06:40:10;;;;;;;10.38;5.05;;;;;;;-4.73;77.92;100156.50;5099123;28;20278;-65
2022/01/27 06:42:36;;;;;;;8.05;4.85;;;;;;;-4.78;77.75;100145.50;5098495;28;20040;-64
2022/01/27 06:47:38;;;;;;;9.35;5.30;;;;;;;-4.73;77.72;100153.06;4694356;26;20054;-70
2022/01/27 06:50:31;;;;;;;6.30;5.10;;;;;;;-4.99;77.61;100120.66;5034510;28;20560;-69
2022/01/27 06:52:57;;;;;;;6.55;5.30;;;;;;;-5.09;78.00;100101.28;5034259;28;20124;-65
2022/01/27 06:55:23;;;;;;;7.23;4.77;;;;;;;-4.77;78.50;100159.34;5034343;28;20047;-65
2022/01/27 06:57:50;;;;;;;8.57;4.33;;;;;;;-4.71;78.42;100154.66;5034259;28;20046;-64
2022/01/27 07:00:16;;;;;;;7.53;4.68;;;;;;;-4.58;77.67;100161.81;5033468;28;20052;-68
2022/01/27 07:02:42;;;;;;;8.02;4.95;;;;;;;-4.51;77.05;100147.56;5033818;28;20056;-62
2022/01/27 07:05:08;;;;;;;12.37;4.63;;;;;;;-4.58;77.48;100122.84;5033497;28;20026;-64
2022/01/27 07:07:33;;;;;;;8.90;5.43;;;;;;;-4.54;76.94;100124.34;5033868;28;20492;-72
2022/01/27 07:09:59;;;;;;;14.23;6.57;;;;;;;-4.54;77.69;100124.34;5034303;28;20272;-72
2022/01/27 07:12:24;;;;;;;7.07;5.30;;;;;;;-4.56;77.34;100126.19;5033979;28;20404;-66
2022/01/27 07:14:50;;;;;;;7.27;4.93;;;;;;;-4.54;76.82;100124.34;5016378;28;20068;-72
2022/01/27 07:17:18;;;;;;;6.13;4.67;;;;;;;-4.57;76.95;100129.72;5035647;28;20086;-71
2022/01/27 07:19:44;;;;;;;7.13;5.07;;;;;;;-4.60;76.91;100122.06;5034533;28;20037;-72
2022/01/27 07:22:10;;;;;;;8.57;5.97;;;;;;;-4.52;76.81;100120.75;5033081;28;20041;-73
2022/01/27 07:24:35;;;;;;;8.10;5.47;;;;;;;-4.75;76.34;100079.56;5034473;28;20104;-72
2022/01/27 07:27:01;;;;;;;9.50;5.53;;;;;;;-4.46;77.12;100106.56;5034139;28;20129;-64
2022/01/27 07:29:26;;;;;;;5.40;4.73;;;;;;;-4.41;76.59;100107.16;5015760;28;20034;-66
2022/01/27 07:31:56;;;;;;;12.05;4.63;;;;;;;-4.45;76.29;100110.84;5016094;28;20052;-64
2022/01/27 07:34:21;;;;;;;6.00;4.28;;;;;;;-4.44;76.42;100102.13;5033773;28;20041;-69
2022/01/27 07:36:48;;;;;;;6.80;4.97;;;;;;;-4.51;76.11;100087.78;5015529;28;20473;-63
2022/01/27 07:39:15;;;;;;;6.57;4.97;;;;;;;-4.37;76.52;100103.44;5016080;28;20045;-64
2022/01/27 07:41:44;;;;;;;8.27;4.53;;;;;;;-4.29;76.30;100101.28;5034664;28;20056;-76
2022/01/27 07:44:09;;;;;;;9.82;4.35;;;;;;;-4.31;76.91;100097.09;5033424;28;20056;-73
2022/01/27 07:46:35;;;;;;;8.53;5.60;;;;;;;-4.21;76.82;100095.66;5033863;28;20037;-74
2022/01/27 07:49:02;;;;;;;11.77;5.50;;;;;;;-4.33;76.59;100068.59;5000157;28;20044;-77
2022/01/27 07:51:28;;;;;;;7.57;5.15;;;;;;;-4.40;77.62;100075.03;5000016;28;20504;-73
2022/01/27 07:53:53;;;;;;;11.80;5.77;;;;;;;-4.50;79.11;100069.50;5037725;28;20037;-71
2022/01/27 07:56:19;;;;;;;13.47;7.40;;;;;;;-4.39;78.72;100076.72;5042138;28;20063;-72
2022/01/27 07:58:45;;;;;;;12.97;6.93;;;;;;;-4.70;78.41;100020.38;5033371;28;20037;-74
2022/01/27 08:01:10;;;;;;;29.23;12.47;;;;;;;-4.90;78.78;99979.94;5031733;28;20042;-74
2022/01/27 08:03:37;;;;;;;21.33;11.47;;;;;;;-4.33;78.22;100076.41;5032954;28;20139;-72
2022/01/27 08:06:06;;;;;;;16.75;7.78;;;;;;;-4.38;79.66;100086.19;4999000;28;20496;-69
2022/01/27 08:08:32;;;;;;;;;;;;;;;-4.25;79.87;100100.19;5033489;28;20042;-73
2022/01/27 08:10:58;;;;;;;25.70;11.97;;;;;;;-4.20;80.28;100095.56;5033093;28;19963;-70
2022/01/27 08:13:24;;;;;;;22.07;9.90;;;;;;;-4.37;81.09;100080.06;5033556;28;20091;-70
2022/01/27 08:15:50;;;;;;;23.00;11.07;;;;;;;-4.33;81.97;100076.41;5015217;28;20480;-66
2022/01/27 08:18:16;;;;;;;25.20;13.40;;;;;;;-4.31;82.47;100074.53;5015280;28;20038;-67
2022/01/27 08:20:41;;;;;;;17.57;9.10;;;;;;;-4.17;81.82;100087.59;5032788;28;20466;-66
2022/01/27 08:23:07;;;;;;;14.43;7.60;;;;;;;-4.09;81.47;100074.16;5036714;28;20059;-69
2022/01/27 08:25:33;;;;;;;15.10;7.90;;;;;;;-3.97;80.12;100072.66;5006904;28;20036;-76
2022/01/27 08:28:05;;;;;;;15.50;9.32;;;;;;;-3.95;80.54;100081.19;5025163;28;20044;-72
2022/01/27 08:30:38;;;;;;;8.27;5.88;;;;;;;-4.14;80.53;100060.59;5019237;28;20048;-71
2022/01/27 08:33:14;;;;;;;11.73;6.15;;;;;;;-4.17;80.63;100050.34;5025234;28;20522;-72
2022/01/27 08:35:39;;;;;;;13.25;6.20;;;;;;;-3.92;79.98;100060.22;5027775;28;20111;-72
2022/01/27 08:38:05;;;;;;;13.97;5.87;;;;;;;-3.90;79.84;100037.53;5042097;28;20487;-68
2022/01/27 08:40:31;;;;;;;12.90;5.40;;;;;;;-3.85;79.17;100056.31;5039777;28;20044;-69
2022/01/27 08:42:57;;;;;;;8.77;5.90;;;;;;;-3.84;78.70;100042.38;5027569;28;20037;-68
2022/01/27 08:45:24;;;;;;;12.52;6.03;;;;;;;-3.76;78.39;100047.97;5042720;28;20044;-69
2022/01/27 08:47:56;;;;;;;9.13;5.85;;;;;;;-3.68;78.44;100048.38;5041577;28;20111;-72
2022/01/27 08:50:24;;;;;;;12.07;6.18;;;;;;;-3.52;77.87;100049.13;5044235;28;20049;-68
2022/01/27 08:52:50;;;;;;;28.48;8.13;;;;;;;-3.57;76.98;100021.72;5021590;28;20042;-67
2022/01/27 08:55:16;;;;;;;7.07;6.30;;;;;;;-3.70;76.71;99993.00;5041772;28;20068;-69
2022/01/27 08:57:41;;;;;;;10.15;6.88;;;;;;;-3.42;76.62;100036.44;5025868;28;20049;-67
2022/01/27 09:00:09;;;;;;;11.60;7.27;;;;;;;-3.28;75.88;100035.59;5019803;28;20033;-71
2022/01/27 09:02:35;;;;;;;17.00;8.20;;;;;;;-3.16;75.96;100038.31;5015284;28;20034;-70
2022/01/27 09:05:00;;;;;;;16.67;7.90;;;;;;;-3.16;76.01;100040.06;5033619;28;20543;-67
2022/01/27 09:07:26;;;;;;;10.90;6.60;;;;;;;-3.25;76.19;100041.44;4999755;28;20059;-67
2022/01/27 09:09:52;;;;;;;14.47;6.30;;;;;;;-3.32;75.70;100018.47;5033594;28;20033;-69
2022/01/27 09:12:17;;;;;;;12.07;6.50;;;;;;;-3.26;75.72;100028.53;5038113;28;20486;-67
2022/01/27 09:14:43;;;;;;;12.83;5.27;;;;;;;-3.40;75.89;100018.97;5034167;28;20045;-67
2022/01/27 09:17:14;;;;;;;12.63;6.70;;;;;;;-3.33;77.23;100022.03;5033629;28;20045;-62
2022/01/27 09:19:42;;;;;;;9.65;5.45;;;;;;;-3.30;76.09;100027.88;5033989;28;20060;-64
2022/01/27 09:22:13;;;;;;;7.97;6.03;;;;;;;-3.40;76.23;100007.69;5016803;28;20531;-64
2022/01/27 09:24:50;;;;;;;8.85;5.47;;;;;;;-3.12;76.78;100025.94;5033949;28;20037;-65
2022/01/27 09:27:16;;;;;;;10.60;6.03;;;;;;;-3.17;76.06;100002.78;5034131;28;20033;-65
2022/01/27 09:29:41;;;;;;;12.73;5.67;;;;;;;-3.16;76.07;99998.41;5033759;28;20044;-66
2022/01/27 09:32:07;;;;;;;9.00;5.37;;;;;;;-3.05;76.44;100005.53;5035244;28;20075;-71
2022/01/27 09:34:34;;;;;;;8.75;6.15;;;;;;;-3.57;74.89;99895.03;5037638;28;20087;-65
2022/01/27 09:37:02;;;;;;;9.35;7.00;;;;;;;-2.85;74.63;100011.19;5034844;28;20069;-71
2022/01/27 09:39:32;;;;;;;10.60;5.45;;;;;;;-2.79;74.82;100001.31;5015571;28;20045;-66
2022/01/27 09:41:59;;;;;;;8.70;6.03;;;;;;;-3.48;75.12;99891.84;5033766;28;20504;-68
2022/01/27 09:44:29;;;;;;;10.15;6.03;;;;;;;-2.83;75.06;99996.31;5035896;28;20045;-65
2022/01/27 09:47:01;;;;;;;17.85;6.93;;;;;;;-3.10;74.88;99951.13;5016508;28;20056;-65
2022/01/27 09:49:37;;;;;;;13.75;7.80;;;;;;;-3.04;75.17;99987.22;5017045;28;20377;-65
2022/01/27 09:52:04;;;;;;;12.85;6.75;;;;;;;-2.98;75.11;99991.19;5035894;28;20045;-66
2022/01/27 09:54:30;;;;;;;12.75;6.05;;;;;;;-2.77;74.79;99984.66;5016984;28;20099;-67
2022/01/27 09:56:56;;;;;;;13.53;5.90;;;;;;;-2.84;73.94;99947.72;5035416;28;20029;-66
2022/01/27 09:59:23;;;;;;;13.10;7.30;;;;;;;-2.59;73.46;99977.44;5033649;28;20417;-64
2022/01/27 10:01:57;;;;;;;11.63;7.45;;;;;;;-2.61;73.54;99971.47;5037679;28;20064;-66
2022/01/27 10:04:45;;;;;;;8.52;5.82;;;;;;;-2.71;73.40;99963.41;5037692;28;20070;-65
2022/01/27 10:07:14;;;;;;;11.38;7.07;;;;;;;-2.74;73.68;99962.78;5038369;28;20033;-68
2022/01/27 10:10:16;;;;;;;14.07;6.32;;;;;;;-2.76;73.90;99954.22;5038076;28;20038;-67
2022/01/27 10:12:49;;;;;;;9.60;6.72;;;;;;;-2.74;74.03;99952.34;5037402;28;20087;-74
2022/01/27 10:15:21;;;;;;;15.15;6.85;;;;;;;-2.73;73.24;99967.03;5036257;28;20561;-69
2022/01/27 10:18:19;;;;;;;13.50;6.38;;;;;;;-2.71;73.76;99979.03;5035893;28;20052;-69
2022/01/27 10:20:58;;;;;;;13.52;8.20;;;;;;;-2.68;73.21;99975.41;4991025;28;20041;-66
2022/01/27 10:23:31;;;;;;;;;;;;;;;-2.76;73.65;99973.28;5037025;28;20056;-71
2022/01/27 10:26:07;;;;;;;8.85;5.88;;;;;;;-2.89;74.37;99955.00;5035241;28;19917;-65
2022/01/27 10:31:09;;;;;;;15.30;8.18;;;;;;;-2.91;73.51;99951.63;5035177;28;20132;-65
2022/01/27 10:33:47;;;;;;;16.33;8.48;;;;;;;-2.92;74.02;99949.97;5034935;28;20029;-70
2022/01/27 10:36:25;;;;;;;11.63;6.95;;;;;;;-2.78;73.71;99961.28;5017258;28;20099;-63
2022/01/27 10:38:56;;;;;;;12.75;6.38;;;;;;;-2.78;73.96;99948.25;5035023;28;20040;-67
2022/01/27 10:41:26;;;;;;;12.73;7.43;;;;;;;-2.68;73.77;99950.19;5017496;28;20042;-68
2022/01/27 10:44:17;;;;;;;15.15;7.28;;;;;;;-2.57;73.37;99950.34;5034207;28;20412;-63
2022/01/27 10:47:09;;;;;;;10.32;7.30;;;;;;;-2.60;73.35;99928.84;5025075;28;20052;-65
2022/01/27 10:49:41;;;;;;;11.57;6.27;;;;;;;-2.45;73.48;99946.09;5016666;28;20045;-66
2022/01/27 10:52:17;;;;;;;12.13;7.13;;;;;;;-2.39;72.71;99934.41;5034359;28;20303;-66
2022/01/27 10:54:49;;;;;;;15.68;8.98;;;;;;;-2.48;73.25;99928.03;5034590;28;20539;-64
2022/01/27 10:57:16;;;;;;;16.00;6.95;;;;;;;-2.39;73.42;99943.06;5034145;28;20056;-67
2022/01/27 10:59:43;;;;;;;15.80;8.23;;;;;;;-2.55;72.15;99906.75;5034284;28;20071;-64
2022/01/27 11:02:12;;;;;;;11.73;7.30;;;;;;;-2.41;73.36;99937.13;5034641;28;20088;-64
2022/01/27 11:04:42;;;;;;;11.50;6.35;;;;;;;-2.43;72.95;99919.91;5034130;28;20048;-63
2022/01/27 11:07:10;;;;;;;10.75;7.03;;;;;;;-2.40;73.07;99912.72;5034211;28;20045;-67
2022/01/27 11:09:40;;;;;;;11.07;5.53;;;;;;;-2.40;72.96;99910.13;5034187;28;20029;-65
2022/01/27 11:12:10;;;;;;;15.23;6.80;;;;;;;-2.30;72.70;99921.63;5033497;28;20045;-62
2022/01/27 11:14:36;;;;;;;10.40;7.18;;;;;;;-2.24;72.32;99917.78;5034902;28;20088;-70
2022/01/27 11:17:05;;;;;;;9.15;6.78;;;;;;;-2.24;72.70;99909.94;5037242;28;20049;-65
2022/01/27 11:22:47;;;;;;;13.52;6.65;;;;;;;-2.07;72.63;99912.25;5035230;28;20135;-66
2022/01/27 11:27:23;;;;;;;8.15;6.22;;;;;;;-2.21;72.21;99888.88;5035283;28;20124;-63
2022/01/27 11:30:02;;;;;;;19.10;10.68;;;;;;;-2.20;73.42;99917.47;5035817;28;20076;-66
2022/01/27 11:32:49;;;;;;;18.90;9.68;;;;;;;-2.45;72.91;99865.25;5035013;28;20449;-62
2022/01/27 11:35:17;;;;;;;10.77;6.30;;;;;;;-2.29;73.46;99894.59;5034106;28;20444;-66
2022/01/27 11:37:49;;;;;;;9.23;7.03;;;;;;;-2.13;73.65;99891.78;5034785;28;20799;-68
2022/01/27 11:40:14;;;;;;;11.07;6.10;;;;;;;-2.23;73.30;99859.44;5041727;28;20045;-73
2022/01/27 11:42:55;;;;;;;13.10;6.90;;;;;;;-1.96;72.55;99894.09;5045517;28;20280;-68
2022/01/27 11:45:21;;;;;;;10.52;6.45;;;;;;;-2.11;72.41;99889.06;5039669;28;20622;-72
2022/01/27 11:47:54;;;;;;;11.83;6.43;;;;;;;-2.30;73.04;99876.47;5037164;28;20077;-68
2022/01/27 11:50:36;;;;;;;14.40;7.85;;;;;;;-2.45;73.67;99896.56;5035438;28;20072;-67
2022/01/27 11:53:08;;;;;;;14.95;7.85;;;;;;;-2.55;74.49;99882.47;5036423;28;20033;-70
2022/01/27 11:55:33;;;;;;;12.95;7.35;;;;;;;-2.49;73.84;99887.25;5036057;28;20045;-65
2022/01/27 11:58:21;;;;;;;14.33;6.77;;;;;;;-2.52;74.67;99874.44;5036457;28;20064;-66
2022/01/27 12:01:06;;;;;;;12.90;6.88;;;;;;;-2.56;74.18;99878.19;5039669;28;20040;-70
2022/01/27 12:03:33;;;;;;;10.63;6.72;;;;;;;-2.79;75.03;99858.00;5042672;28;20030;-70
2022/01/27 12:06:14;;;;;;;9.23;6.45;;;;;;;-2.65;75.35;99873.56;5035890;28;20071;-65
2022/01/27 12:08:39;;;;;;;10.82;5.82;;;;;;;-2.57;74.92;99860.88;5033659;28;20041;-66
2022/01/27 12:11:09;;;;;;;12.97;7.23;;;;;;;-2.59;75.39;99860.13;5013543;28;20457;-69
2022/01/27 12:13:42;;;;;;;9.20;7.20;;;;;;;-2.58;76.33;99870.47;5032296;28;20048;-75
2022/01/27 12:19:09;;;;;;;12.82;7.07;;;;;;;-2.60;76.15;99861.91;5031417;28;20030;-67
2022/01/27 12:21:56;;;;;;;12.57;6.93;;;;;;;-2.64;76.67;99860.41;5031449;28;20025;-66
2022/01/27 12:24:28;;;;;;;7.47;6.57;;;;;;;-2.63;76.91;99861.25;5029997;28;20040;-65
2022/01/27 12:27:06;;;;;;;12.63;8.75;;;;;;;-2.47;76.88;99859.31;5033134;28;20120;-66
2022/01/27 12:29:40;;;;;;;9.68;6.88;;;;;;;-2.56;77.17;99850.34;5032725;28;20166;-72
2022/01/27 12:32:08;;;;;;;9.27;6.15;;;;;;;-2.58;78.42;99843.56;5014333;28;20396;-70